sensor_id;sensor_type;location;lat;lon;timestamp;P1;durP1;ratioP1;P2;durP2;ratioP2
16288;SDS011;26089;43.538;5.250;2023-04-01T00:01:41;9.57;;;2.83;;
16288;SDS011;26089;43.538;5.250;2023-04-01T00:04:08;5.10;;;2.33;;
16288;SDS011;26089;43.538;5.250;2023-04-01T00:06:35;8.63;;;2.00;;
16288;SDS011;26089;43.538;5.250;2023-04-01T00:09:02;8.80;;;2.80;;
16288;SDS011;26089;43.538;5.250;2023-04-01T00:11:29;8.80;;;2.67;;
16288;SDS011;26089;43.538;5.250;2023-04-01T00:13:56;7.77;;;2.13;;
16288;SDS011;26089;43.538;5.250;2023-04-01T00:16:25;10.60;;;2.37;;
16288;SDS011;26089;43.538;5.250;2023-04-01T00:18:52;6.43;;;2.93;;
16288;SDS011;26089;43.538;5.250;2023-04-01T00:21:19;9.03;;;2.50;;
16288;SDS011;26089;43.538;5.250;2023-04-01T00:23:46;6.93;;;2.20;;
16288;SDS011;26089;43.538;5.250;2023-04-01T00:26:14;10.83;;;2.70;;
16288;SDS011;26089;43.538;5.250;2023-04-01T00:28:44;5.37;;;2.60;;
16288;SDS011;26089;43.538;5.250;2023-04-01T00:31:11;6.90;;;2.70;;
16288;SDS011;26089;43.538;5.250;2023-04-01T00:33:40;12.00;;;3.60;;
16288;SDS011;26089;43.538;5.250;2023-04-01T00:36:08;9.17;;;2.37;;
16288;SDS011;26089;43.538;5.250;2023-04-01T00:38:36;10.33;;;2.90;;
16288;SDS011;26089;43.538;5.250;2023-04-01T00:41:03;9.30;;;3.30;;
16288;SDS011;26089;43.538;5.250;2023-04-01T00:43:31;6.00;;;3.13;;
16288;SDS011;26089;43.538;5.250;2023-04-01T00:45:59;8.87;;;2.37;;
16288;SDS011;26089;43.538;5.250;2023-04-01T00:48:27;10.33;;;2.97;;
16288;SDS011;26089;43.538;5.250;2023-04-01T00:50:59;9.10;;;3.13;;
16288;SDS011;26089;43.538;5.250;2023-04-01T00:53:28;7.60;;;2.87;;
16288;SDS011;26089;43.538;5.250;2023-04-01T00:55:57;8.03;;;3.17;;
16288;SDS011;26089;43.538;5.250;2023-04-01T00:58:27;8.27;;;3.03;;
16288;SDS011;26089;43.538;5.250;2023-04-01T01:00:57;9.87;;;2.90;;
16288;SDS011;26089;43.538;5.250;2023-04-01T01:03:26;9.17;;;2.60;;
16288;SDS011;26089;43.538;5.250;2023-04-01T01:05:57;8.27;;;2.60;;
16288;SDS011;26089;43.538;5.250;2023-04-01T01:08:38;11.17;;;2.57;;
16288;SDS011;26089;43.538;5.250;2023-04-01T01:11:25;6.70;;;2.83;;
16288;SDS011;26089;43.538;5.250;2023-04-01T01:14:01;7.13;;;2.57;;
16288;SDS011;26089;43.538;5.250;2023-04-01T01:16:36;11.17;;;3.17;;
16288;SDS011;26089;43.538;5.250;2023-04-01T01:19:09;10.80;;;2.63;;
16288;SDS011;26089;43.538;5.250;2023-04-01T01:21:56;9.37;;;2.87;;
16288;SDS011;26089;43.538;5.250;2023-04-01T01:24:43;9.57;;;2.57;;
16288;SDS011;26089;43.538;5.250;2023-04-01T01:27:23;13.60;;;3.40;;
16288;SDS011;26089;43.538;5.250;2023-04-01T01:30:00;9.53;;;2.40;;
16288;SDS011;26089;43.538;5.250;2023-04-01T01:32:51;12.27;;;2.47;;
16288;SDS011;26089;43.538;5.250;2023-04-01T01:35:30;9.60;;;2.60;;
16288;SDS011;26089;43.538;5.250;2023-04-01T01:37:59;5.50;;;2.10;;
16288;SDS011;26089;43.538;5.250;2023-04-01T01:40:28;10.57;;;3.20;;
16288;SDS011;26089;43.538;5.250;2023-04-01T01:42:59;10.03;;;2.93;;
16288;SDS011;26089;43.538;5.250;2023-04-01T01:45:28;9.60;;;2.70;;
16288;SDS011;26089;43.538;5.250;2023-04-01T01:47:58;8.17;;;2.77;;
16288;SDS011;26089;43.538;5.250;2023-04-01T01:50:26;8.23;;;2.40;;
16288;SDS011;26089;43.538;5.250;2023-04-01T01:53:02;8.30;;;2.70;;
16288;SDS011;26089;43.538;5.250;2023-04-01T01:55:31;9.50;;;3.10;;
16288;SDS011;26089;43.538;5.250;2023-04-01T01:58:00;6.43;;;3.00;;
16288;SDS011;26089;43.538;5.250;2023-04-01T02:00:32;11.93;;;2.60;;
16288;SDS011;26089;43.538;5.250;2023-04-01T02:03:00;9.70;;;2.93;;
16288;SDS011;26089;43.538;5.250;2023-04-01T02:05:29;7.73;;;2.60;;
16288;SDS011;26089;43.538;5.250;2023-04-01T02:07:59;10.10;;;2.40;;
16288;SDS011;26089;43.538;5.250;2023-04-01T02:10:30;9.77;;;2.57;;
16288;SDS011;26089;43.538;5.250;2023-04-01T02:13:00;9.53;;;2.20;;
16288;SDS011;26089;43.538;5.250;2023-04-01T02:15:32;9.73;;;2.40;;
16288;SDS011;26089;43.538;5.250;2023-04-01T02:18:03;11.30;;;2.87;;
16288;SDS011;26089;43.538;5.250;2023-04-01T02:20:33;10.30;;;3.17;;
16288;SDS011;26089;43.538;5.250;2023-04-01T02:23:02;10.37;;;2.80;;
16288;SDS011;26089;43.538;5.250;2023-04-01T02:25:33;11.17;;;3.00;;
16288;SDS011;26089;43.538;5.250;2023-04-01T02:28:04;6.87;;;2.37;;
16288;SDS011;26089;43.538;5.250;2023-04-01T02:30:34;6.13;;;2.73;;
16288;SDS011;26089;43.538;5.250;2023-04-01T02:33:04;11.97;;;3.00;;
16288;SDS011;26089;43.538;5.250;2023-04-01T02:35:33;9.57;;;2.57;;
16288;SDS011;26089;43.538;5.250;2023-04-01T02:38:02;10.47;;;2.63;;
16288;SDS011;26089;43.538;5.250;2023-04-01T02:40:40;10.90;;;2.87;;
16288;SDS011;26089;43.538;5.250;2023-04-01T02:43:08;9.37;;;3.00;;
16288;SDS011;26089;43.538;5.250;2023-04-01T02:45:35;6.37;;;2.07;;
16288;SDS011;26089;43.538;5.250;2023-04-01T02:48:02;7.97;;;3.33;;
16288;SDS011;26089;43.538;5.250;2023-04-01T02:50:30;9.17;;;3.00;;
16288;SDS011;26089;43.538;5.250;2023-04-01T02:52:58;6.27;;;2.33;;
16288;SDS011;26089;43.538;5.250;2023-04-01T02:55:25;9.27;;;2.73;;
16288;SDS011;26089;43.538;5.250;2023-04-01T02:57:52;8.97;;;3.00;;
16288;SDS011;26089;43.538;5.250;2023-04-01T03:00:19;9.00;;;2.83;;
16288;SDS011;26089;43.538;5.250;2023-04-01T03:02:46;9.87;;;2.70;;
16288;SDS011;26089;43.538;5.250;2023-04-01T03:05:13;10.47;;;2.50;;
16288;SDS011;26089;43.538;5.250;2023-04-01T03:07:40;9.30;;;2.50;;
16288;SDS011;26089;43.538;5.250;2023-04-01T03:10:09;7.43;;;2.43;;
16288;SDS011;26089;43.538;5.250;2023-04-01T03:12:36;10.13;;;2.80;;
16288;SDS011;26089;43.538;5.250;2023-04-01T03:15:04;10.43;;;2.70;;
16288;SDS011;26089;43.538;5.250;2023-04-01T03:17:32;8.10;;;2.10;;
16288;SDS011;26089;43.538;5.250;2023-04-01T03:19:59;8.83;;;2.57;;
16288;SDS011;26089;43.538;5.250;2023-04-01T03:22:26;8.30;;;2.63;;
16288;SDS011;26089;43.538;5.250;2023-04-01T03:24:52;11.20;;;3.03;;
16288;SDS011;26089;43.538;5.250;2023-04-01T03:27:21;7.13;;;2.63;;
16288;SDS011;26089;43.538;5.250;2023-04-01T03:29:48;11.33;;;3.63;;
16288;SDS011;26089;43.538;5.250;2023-04-01T03:32:15;11.13;;;2.47;;
16288;SDS011;26089;43.538;5.250;2023-04-01T03:34:42;11.37;;;3.10;;
16288;SDS011;26089;43.538;5.250;2023-04-01T03:37:09;9.83;;;2.67;;
16288;SDS011;26089;43.538;5.250;2023-04-01T03:39:36;8.27;;;3.27;;
16288;SDS011;26089;43.538;5.250;2023-04-01T03:42:03;9.80;;;2.93;;
16288;SDS011;26089;43.538;5.250;2023-04-01T03:44:33;11.60;;;3.20;;
16288;SDS011;26089;43.538;5.250;2023-04-01T03:47:00;11.67;;;3.00;;
16288;SDS011;26089;43.538;5.250;2023-04-01T03:49:27;12.17;;;3.00;;
16288;SDS011;26089;43.538;5.250;2023-04-01T03:51:54;10.10;;;3.00;;
16288;SDS011;26089;43.538;5.250;2023-04-01T03:54:21;5.80;;;2.33;;
16288;SDS011;26089;43.538;5.250;2023-04-01T03:56:48;11.70;;;3.10;;
16288;SDS011;26089;43.538;5.250;2023-04-01T03:59:15;9.40;;;3.23;;
16288;SDS011;26089;43.538;5.250;2023-04-01T04:01:43;8.03;;;2.97;;
16288;SDS011;26089;43.538;5.250;2023-04-01T04:04:12;10.10;;;3.33;;
16288;SDS011;26089;43.538;5.250;2023-04-01T04:06:40;10.40;;;3.20;;
16288;SDS011;26089;43.538;5.250;2023-04-01T04:09:07;11.93;;;2.73;;
16288;SDS011;26089;43.538;5.250;2023-04-01T04:11:34;15.27;;;3.43;;
16288;SDS011;26089;43.538;5.250;2023-04-01T04:14:01;12.33;;;3.67;;
16288;SDS011;26089;43.538;5.250;2023-04-01T04:16:28;11.40;;;3.33;;
16288;SDS011;26089;43.538;5.250;2023-04-01T04:18:56;12.83;;;2.83;;
16288;SDS011;26089;43.538;5.250;2023-04-01T04:21:23;12.17;;;2.63;;
16288;SDS011;26089;43.538;5.250;2023-04-01T04:23:50;11.67;;;3.50;;
16288;SDS011;26089;43.538;5.250;2023-04-01T04:26:17;12.53;;;2.83;;
16288;SDS011;26089;43.538;5.250;2023-04-01T04:28:44;15.67;;;4.00;;
16288;SDS011;26089;43.538;5.250;2023-04-01T04:31:11;11.90;;;3.13;;
16288;SDS011;26089;43.538;5.250;2023-04-01T04:33:43;13.77;;;3.13;;
16288;SDS011;26089;43.538;5.250;2023-04-01T04:36:12;13.33;;;3.33;;
16288;SDS011;26089;43.538;5.250;2023-04-01T04:38:39;10.67;;;3.13;;
16288;SDS011;26089;43.538;5.250;2023-04-01T04:41:08;12.10;;;2.70;;
16288;SDS011;26089;43.538;5.250;2023-04-01T04:43:36;12.23;;;2.97;;
16288;SDS011;26089;43.538;5.250;2023-04-01T04:46:04;9.90;;;2.77;;
16288;SDS011;26089;43.538;5.250;2023-04-01T04:48:32;12.73;;;3.23;;
16288;SDS011;26089;43.538;5.250;2023-04-01T04:50:59;9.00;;;2.97;;
16288;SDS011;26089;43.538;5.250;2023-04-01T04:53:27;9.90;;;3.13;;
16288;SDS011;26089;43.538;5.250;2023-04-01T04:55:54;9.03;;;2.47;;
16288;SDS011;26089;43.538;5.250;2023-04-01T04:58:21;18.50;;;3.70;;
16288;SDS011;26089;43.538;5.250;2023-04-01T05:00:48;21.87;;;3.50;;
16288;SDS011;26089;43.538;5.250;2023-04-01T05:03:15;14.27;;;2.93;;
16288;SDS011;26089;43.538;5.250;2023-04-01T05:05:47;5.60;;;2.57;;
16288;SDS011;26089;43.538;5.250;2023-04-01T05:08:15;13.23;;;2.73;;
16288;SDS011;26089;43.538;5.250;2023-04-01T05:10:43;10.10;;;3.10;;
16288;SDS011;26089;43.538;5.250;2023-04-01T05:13:10;10.30;;;2.70;;
16288;SDS011;26089;43.538;5.250;2023-04-01T05:15:37;13.60;;;3.47;;
16288;SDS011;26089;43.538;5.250;2023-04-01T05:18:05;13.20;;;3.00;;
16288;SDS011;26089;43.538;5.250;2023-04-01T05:20:31;11.23;;;2.77;;
16288;SDS011;26089;43.538;5.250;2023-04-01T05:22:59;16.00;;;2.70;;
16288;SDS011;26089;43.538;5.250;2023-04-01T05:25:26;11.90;;;3.97;;
16288;SDS011;26089;43.538;5.250;2023-04-01T05:27:55;11.70;;;3.77;;
16288;SDS011;26089;43.538;5.250;2023-04-01T05:30:22;13.07;;;3.17;;
16288;SDS011;26089;43.538;5.250;2023-04-01T05:32:49;14.90;;;3.07;;
16288;SDS011;26089;43.538;5.250;2023-04-01T05:35:16;17.10;;;3.70;;
16288;SDS011;26089;43.538;5.250;2023-04-01T05:37:43;9.10;;;2.30;;
16288;SDS011;26089;43.538;5.250;2023-04-01T05:40:10;14.53;;;3.17;;
16288;SDS011;26089;43.538;5.250;2023-04-01T05:42:37;14.90;;;3.93;;
16288;SDS011;26089;43.538;5.250;2023-04-01T05:45:06;12.97;;;3.47;;
16288;SDS011;26089;43.538;5.250;2023-04-01T05:47:34;11.30;;;3.37;;
16288;SDS011;26089;43.538;5.250;2023-04-01T05:50:01;12.63;;;3.07;;
16288;SDS011;26089;43.538;5.250;2023-04-01T05:52:28;10.03;;;3.03;;
16288;SDS011;26089;43.538;5.250;2023-04-01T05:54:54;9.57;;;3.07;;
16288;SDS011;26089;43.538;5.250;2023-04-01T05:57:21;9.07;;;3.10;;
16288;SDS011;26089;43.538;5.250;2023-04-01T05:59:48;12.37;;;3.33;;
16288;SDS011;26089;43.538;5.250;2023-04-01T06:02:17;22.33;;;5.00;;
16288;SDS011;26089;43.538;5.250;2023-04-01T06:04:44;17.00;;;3.83;;
16288;SDS011;26089;43.538;5.250;2023-04-01T06:07:11;12.00;;;3.10;;
16288;SDS011;26089;43.538;5.250;2023-04-01T06:09:39;14.07;;;3.83;;
16288;SDS011;26089;43.538;5.250;2023-04-01T06:12:17;11.40;;;3.10;;
16288;SDS011;26089;43.538;5.250;2023-04-01T06:15:01;10.57;;;2.70;;
16288;SDS011;26089;43.538;5.250;2023-04-01T06:17:43;13.77;;;3.83;;
16288;SDS011;26089;43.538;5.250;2023-04-01T06:20:25;13.03;;;3.63;;
16288;SDS011;26089;43.538;5.250;2023-04-01T06:23:09;12.63;;;2.70;;
16288;SDS011;26089;43.538;5.250;2023-04-01T06:31:48;16.67;;;3.90;;
16288;SDS011;26089;43.538;5.250;2023-04-01T06:34:33;14.60;;;3.10;;
16288;SDS011;26089;43.538;5.250;2023-04-01T06:37:34;12.77;;;3.10;;
16288;SDS011;26089;43.538;5.250;2023-04-01T06:43:25;10.90;;;2.50;;
16288;SDS011;26089;43.538;5.250;2023-04-01T06:46:03;13.47;;;3.43;;
16288;SDS011;26089;43.538;5.250;2023-04-01T06:48:45;8.33;;;2.77;;
16288;SDS011;26089;43.538;5.250;2023-04-01T06:51:28;10.80;;;2.47;;
16288;SDS011;26089;43.538;5.250;2023-04-01T06:54:03;8.07;;;2.23;;
16288;SDS011;26089;43.538;5.250;2023-04-01T06:56:32;13.00;;;2.97;;
16288;SDS011;26089;43.538;5.250;2023-04-01T06:59:01;13.50;;;2.87;;
16288;SDS011;26089;43.538;5.250;2023-04-01T07:01:32;15.70;;;3.07;;
16288;SDS011;26089;43.538;5.250;2023-04-01T07:04:05;9.03;;;2.90;;
16288;SDS011;26089;43.538;5.250;2023-04-01T07:06:37;8.47;;;2.73;;
16288;SDS011;26089;43.538;5.250;2023-04-01T07:09:10;10.40;;;3.33;;
16288;SDS011;26089;43.538;5.250;2023-04-01T07:11:41;8.30;;;2.50;;
16288;SDS011;26089;43.538;5.250;2023-04-01T07:14:10;13.10;;;2.50;;
16288;SDS011;26089;43.538;5.250;2023-04-01T07:16:43;14.17;;;2.97;;
16288;SDS011;26089;43.538;5.250;2023-04-01T07:19:16;9.63;;;2.77;;
16288;SDS011;26089;43.538;5.250;2023-04-01T07:21:49;9.60;;;2.70;;
16288;SDS011;26089;43.538;5.250;2023-04-01T07:24:21;10.93;;;2.80;;
16288;SDS011;26089;43.538;5.250;2023-04-01T07:26:54;10.93;;;3.00;;
16288;SDS011;26089;43.538;5.250;2023-04-01T07:29:22;10.63;;;3.00;;
16288;SDS011;26089;43.538;5.250;2023-04-01T07:32:02;16.63;;;2.90;;
16288;SDS011;26089;43.538;5.250;2023-04-01T07:34:42;10.37;;;2.63;;
16288;SDS011;26089;43.538;5.250;2023-04-01T07:37:21;8.83;;;2.80;;
16288;SDS011;26089;43.538;5.250;2023-04-01T07:39:54;6.97;;;2.50;;
16288;SDS011;26089;43.538;5.250;2023-04-01T07:42:29;10.50;;;2.80;;
16288;SDS011;26089;43.538;5.250;2023-04-01T07:45:05;8.07;;;2.93;;
16288;SDS011;26089;43.538;5.250;2023-04-01T07:47:45;6.47;;;2.77;;
16288;SDS011;26089;43.538;5.250;2023-04-01T07:50:25;15.43;;;3.30;;
16288;SDS011;26089;43.538;5.250;2023-04-01T07:52:58;14.00;;;3.00;;
16288;SDS011;26089;43.538;5.250;2023-04-01T07:55:35;11.47;;;3.40;;
16288;SDS011;26089;43.538;5.250;2023-04-01T07:58:10;9.77;;;2.97;;
16288;SDS011;26089;43.538;5.250;2023-04-01T08:00:45;9.50;;;2.97;;
16288;SDS011;26089;43.538;5.250;2023-04-01T08:03:28;11.47;;;2.77;;
16288;SDS011;26089;43.538;5.250;2023-04-01T08:06:03;10.50;;;3.33;;
16288;SDS011;26089;43.538;5.250;2023-04-01T08:08:39;10.40;;;3.17;;
16288;SDS011;26089;43.538;5.250;2023-04-01T08:11:14;11.40;;;3.40;;
16288;SDS011;26089;43.538;5.250;2023-04-01T08:13:54;8.67;;;2.73;;
16288;SDS011;26089;43.538;5.250;2023-04-01T08:16:31;11.93;;;3.17;;
16288;SDS011;26089;43.538;5.250;2023-04-01T08:19:06;10.50;;;3.10;;
16288;SDS011;26089;43.538;5.250;2023-04-01T08:21:45;11.60;;;2.80;;
16288;SDS011;26089;43.538;5.250;2023-04-01T08:24:20;9.83;;;2.93;;
16288;SDS011;26089;43.538;5.250;2023-04-01T08:26:53;10.23;;;2.57;;
16288;SDS011;26089;43.538;5.250;2023-04-01T08:29:25;11.37;;;2.50;;
16288;SDS011;26089;43.538;5.250;2023-04-01T08:32:02;10.30;;;2.37;;
16288;SDS011;26089;43.538;5.250;2023-04-01T08:34:34;5.87;;;2.27;;
16288;SDS011;26089;43.538;5.250;2023-04-01T08:37:04;8.10;;;2.83;;
16288;SDS011;26089;43.538;5.250;2023-04-01T08:39:36;9.30;;;2.53;;
16288;SDS011;26089;43.538;5.250;2023-04-01T08:42:13;9.67;;;2.97;;
16288;SDS011;26089;43.538;5.250;2023-04-01T08:45:01;8.23;;;2.50;;
16288;SDS011;26089;43.538;5.250;2023-04-01T08:47:42;7.73;;;2.40;;
16288;SDS011;26089;43.538;5.250;2023-04-01T08:50:23;8.10;;;2.33;;
16288;SDS011;26089;43.538;5.250;2023-04-01T08:53:00;9.50;;;2.67;;
16288;SDS011;26089;43.538;5.250;2023-04-01T08:55:56;6.27;;;2.67;;
16288;SDS011;26089;43.538;5.250;2023-04-01T08:58:37;8.47;;;2.37;;
16288;SDS011;26089;43.538;5.250;2023-04-01T09:04:27;6.37;;;2.00;;
16288;SDS011;26089;43.538;5.250;2023-04-01T09:07:16;6.53;;;2.10;;
16288;SDS011;26089;43.538;5.250;2023-04-01T09:10:01;9.10;;;2.37;;
16288;SDS011;26089;43.538;5.250;2023-04-01T09:12:56;8.53;;;2.53;;
16288;SDS011;26089;43.538;5.250;2023-04-01T09:15:42;5.13;;;2.10;;
16288;SDS011;26089;43.538;5.250;2023-04-01T09:18:36;7.03;;;2.23;;
16288;SDS011;26089;43.538;5.250;2023-04-01T09:21:29;21.70;;;2.97;;
16288;SDS011;26089;43.538;5.250;2023-04-01T09:24:14;10.07;;;2.50;;
16288;SDS011;26089;43.538;5.250;2023-04-01T09:27:05;6.80;;;1.97;;
16288;SDS011;26089;43.538;5.250;2023-04-01T09:29:47;12.27;;;2.10;;
16288;SDS011;26089;43.538;5.250;2023-04-01T09:35:30;3.73;;;1.67;;
16288;SDS011;26089;43.538;5.250;2023-04-01T09:38:11;6.63;;;1.90;;
16288;SDS011;26089;43.538;5.250;2023-04-01T09:40:47;6.47;;;1.90;;
16288;SDS011;26089;43.538;5.250;2023-04-01T09:43:22;6.17;;;1.90;;
16288;SDS011;26089;43.538;5.250;2023-04-01T09:45:57;3.10;;;1.80;;
16288;SDS011;26089;43.538;5.250;2023-04-01T09:51:32;4.67;;;2.13;;
16288;SDS011;26089;43.538;5.250;2023-04-01T09:54:13;7.30;;;2.00;;
16288;SDS011;26089;43.538;5.250;2023-04-01T09:59:49;5.90;;;2.07;;
16288;SDS011;26089;43.538;5.250;2023-04-01T10:02:48;5.43;;;1.90;;
16288;SDS011;26089;43.538;5.250;2023-04-01T10:18:40;5.00;;;1.97;;
16288;SDS011;26089;43.538;5.250;2023-04-01T10:24:41;3.43;;;1.30;;
16288;SDS011;26089;43.538;5.250;2023-04-01T10:27:44;2.87;;;1.20;;
16288;SDS011;26089;43.538;5.250;2023-04-01T10:30:48;3.87;;;1.60;;
16288;SDS011;26089;43.538;5.250;2023-04-01T10:36:54;4.70;;;1.40;;
16288;SDS011;26089;43.538;5.250;2023-04-01T10:42:42;4.90;;;1.70;;
16288;SDS011;26089;43.538;5.250;2023-04-01T10:45:52;3.90;;;1.53;;
16288;SDS011;26089;43.538;5.250;2023-04-01T10:48:50;2.97;;;1.30;;
16288;SDS011;26089;43.538;5.250;2023-04-01T10:51:54;2.33;;;1.53;;
16288;SDS011;26089;43.538;5.250;2023-04-01T10:54:45;5.60;;;1.80;;
16288;SDS011;26089;43.538;5.250;2023-04-01T11:00:24;3.83;;;1.57;;
16288;SDS011;26089;43.538;5.250;2023-04-01T11:03:06;2.13;;;1.40;;
16288;SDS011;26089;43.538;5.250;2023-04-01T11:06:10;4.60;;;1.60;;
16288;SDS011;26089;43.538;5.250;2023-04-01T11:09:28;2.37;;;1.17;;
16288;SDS011;26089;43.538;5.250;2023-04-01T11:15:26;5.47;;;2.10;;
16288;SDS011;26089;43.538;5.250;2023-04-01T11:24:40;3.40;;;1.67;;
16288;SDS011;26089;43.538;5.250;2023-04-01T11:33:00;5.43;;;1.53;;
16288;SDS011;26089;43.538;5.250;2023-04-01T11:35:36;5.87;;;1.63;;
16288;SDS011;26089;43.538;5.250;2023-04-01T11:38:17;3.73;;;1.27;;
16288;SDS011;26089;43.538;5.250;2023-04-01T11:40:53;4.00;;;1.70;;
16288;SDS011;26089;43.538;5.250;2023-04-01T11:43:27;3.37;;;1.57;;
16288;SDS011;26089;43.538;5.250;2023-04-01T11:46:01;3.40;;;1.60;;
16288;SDS011;26089;43.538;5.250;2023-04-01T11:48:36;6.43;;;1.50;;
16288;SDS011;26089;43.538;5.250;2023-04-01T11:51:27;3.97;;;1.53;;
16288;SDS011;26089;43.538;5.250;2023-04-01T11:54:20;4.80;;;1.70;;
16288;SDS011;26089;43.538;5.250;2023-04-01T11:57:00;4.60;;;1.63;;
16288;SDS011;26089;43.538;5.250;2023-04-01T11:59:57;5.47;;;1.77;;
16288;SDS011;26089;43.538;5.250;2023-04-01T12:02:42;2.83;;;1.33;;
16288;SDS011;26089;43.538;5.250;2023-04-01T12:05:23;4.53;;;1.40;;
16288;SDS011;26089;43.538;5.250;2023-04-01T12:08:04;3.93;;;1.67;;
16288;SDS011;26089;43.538;5.250;2023-04-01T12:10:40;4.37;;;1.60;;
16288;SDS011;26089;43.538;5.250;2023-04-01T12:13:18;3.27;;;1.53;;
16288;SDS011;26089;43.538;5.250;2023-04-01T12:15:57;4.70;;;1.37;;
16288;SDS011;26089;43.538;5.250;2023-04-01T12:18:34;2.33;;;1.13;;
16288;SDS011;26089;43.538;5.250;2023-04-01T12:21:09;3.30;;;1.20;;
16288;SDS011;26089;43.538;5.250;2023-04-01T12:24:01;1.60;;;1.13;;
16288;SDS011;26089;43.538;5.250;2023-04-01T12:26:48;3.90;;;1.50;;
16288;SDS011;26089;43.538;5.250;2023-04-01T12:29:35;3.57;;;1.50;;
16288;SDS011;26089;43.538;5.250;2023-04-01T12:32:21;3.07;;;1.30;;
16288;SDS011;26089;43.538;5.250;2023-04-01T12:35:01;4.20;;;1.13;;
16288;SDS011;26089;43.538;5.250;2023-04-01T12:37:45;4.30;;;1.30;;
16288;SDS011;26089;43.538;5.250;2023-04-01T12:40:40;3.30;;;1.50;;
16288;SDS011;26089;43.538;5.250;2023-04-01T12:43:20;2.10;;;1.30;;
16288;SDS011;26089;43.538;5.250;2023-04-01T12:46:15;3.27;;;1.47;;
16288;SDS011;26089;43.538;5.250;2023-04-01T12:49:03;2.83;;;1.10;;
16288;SDS011;26089;43.538;5.250;2023-04-01T12:54:56;4.70;;;1.60;;
16288;SDS011;26089;43.538;5.250;2023-04-01T13:00:39;2.90;;;1.40;;
16288;SDS011;26089;43.538;5.250;2023-04-01T13:03:26;1.90;;;1.33;;
16288;SDS011;26089;43.538;5.250;2023-04-01T13:06:20;2.93;;;1.20;;
16288;SDS011;26089;43.538;5.250;2023-04-01T13:09:11;5.03;;;1.37;;
16288;SDS011;26089;43.538;5.250;2023-04-01T13:12:00;3.63;;;1.03;;
16288;SDS011;26089;43.538;5.250;2023-04-01T13:14:52;2.03;;;0.90;;
16288;SDS011;26089;43.538;5.250;2023-04-01T13:17:32;2.93;;;2.37;;
16288;SDS011;26089;43.538;5.250;2023-04-01T13:20:11;3.93;;;1.43;;
16288;SDS011;26089;43.538;5.250;2023-04-01T13:22:46;1.80;;;1.13;;
16288;SDS011;26089;43.538;5.250;2023-04-01T13:25:24;1.83;;;1.23;;
16288;SDS011;26089;43.538;5.250;2023-04-01T13:28:00;4.70;;;1.70;;
16288;SDS011;26089;43.538;5.250;2023-04-01T13:30:33;3.07;;;1.20;;
16288;SDS011;26089;43.538;5.250;2023-04-01T13:33:04;4.23;;;1.33;;
16288;SDS011;26089;43.538;5.250;2023-04-01T13:35:42;3.00;;;1.53;;
16288;SDS011;26089;43.538;5.250;2023-04-01T13:38:18;2.40;;;1.53;;
16288;SDS011;26089;43.538;5.250;2023-04-01T13:41:10;3.30;;;1.07;;
16288;SDS011;26089;43.538;5.250;2023-04-01T13:43:49;2.97;;;1.30;;
16288;SDS011;26089;43.538;5.250;2023-04-01T13:46:24;5.50;;;1.47;;
16288;SDS011;26089;43.538;5.250;2023-04-01T13:51:57;2.97;;;1.57;;
16288;SDS011;26089;43.538;5.250;2023-04-01T13:54:44;3.20;;;1.70;;
16288;SDS011;26089;43.538;5.250;2023-04-01T13:57:42;4.47;;;1.53;;
16288;SDS011;26089;43.538;5.250;2023-04-01T14:00:23;3.03;;;1.47;;
16288;SDS011;26089;43.538;5.250;2023-04-01T14:03:17;2.03;;;1.17;;
16288;SDS011;26089;43.538;5.250;2023-04-01T14:08:51;2.13;;;1.37;;
16288;SDS011;26089;43.538;5.250;2023-04-01T14:11:33;5.77;;;1.27;;
16288;SDS011;26089;43.538;5.250;2023-04-01T14:14:13;3.03;;;1.30;;
16288;SDS011;26089;43.538;5.250;2023-04-01T14:19:59;3.17;;;1.00;;
16288;SDS011;26089;43.538;5.250;2023-04-01T14:22:42;1.47;;;1.03;;
16288;SDS011;26089;43.538;5.250;2023-04-01T14:25:27;3.93;;;1.37;;
16288;SDS011;26089;43.538;5.250;2023-04-01T14:28:14;17.83;;;1.37;;
16288;SDS011;26089;43.538;5.250;2023-04-01T14:30:58;1.73;;;0.80;;
16288;SDS011;26089;43.538;5.250;2023-04-01T14:33:41;1.03;;;0.77;;
16288;SDS011;26089;43.538;5.250;2023-04-01T14:36:30;1.27;;;0.80;;
16288;SDS011;26089;43.538;5.250;2023-04-01T14:39:12;4.20;;;1.10;;
16288;SDS011;26089;43.538;5.250;2023-04-01T14:41:55;1.53;;;0.97;;
16288;SDS011;26089;43.538;5.250;2023-04-01T14:44:43;4.83;;;1.00;;
16288;SDS011;26089;43.538;5.250;2023-04-01T14:47:39;2.50;;;0.70;;
16288;SDS011;26089;43.538;5.250;2023-04-01T14:50:12;0.90;;;0.53;;
16288;SDS011;26089;43.538;5.250;2023-04-01T14:52:42;3.87;;;1.20;;
16288;SDS011;26089;43.538;5.250;2023-04-01T14:55:26;4.20;;;1.30;;
16288;SDS011;26089;43.538;5.250;2023-04-01T14:58:04;1.43;;;1.00;;
16288;SDS011;26089;43.538;5.250;2023-04-01T15:00:41;1.60;;;1.00;;
16288;SDS011;26089;43.538;5.250;2023-04-01T15:03:20;4.67;;;1.43;;
16288;SDS011;26089;43.538;5.250;2023-04-01T15:05:55;3.37;;;1.30;;
16288;SDS011;26089;43.538;5.250;2023-04-01T15:08:28;4.43;;;1.37;;
16288;SDS011;26089;43.538;5.250;2023-04-01T15:11:12;15.70;;;2.07;;
16288;SDS011;26089;43.538;5.250;2023-04-01T15:16:46;2.73;;;1.20;;
16288;SDS011;26089;43.538;5.250;2023-04-01T15:19:29;3.23;;;1.20;;
16288;SDS011;26089;43.538;5.250;2023-04-01T15:25:15;5.90;;;1.60;;
16288;SDS011;26089;43.538;5.250;2023-04-01T15:27:59;4.00;;;1.40;;
16288;SDS011;26089;43.538;5.250;2023-04-01T15:30:34;8.50;;;1.70;;
16288;SDS011;26089;43.538;5.250;2023-04-01T15:33:23;8.63;;;1.80;;
16288;SDS011;26089;43.538;5.250;2023-04-01T15:36:12;6.63;;;1.80;;
16288;SDS011;26089;43.538;5.250;2023-04-01T15:38:50;4.83;;;1.60;;
16288;SDS011;26089;43.538;5.250;2023-04-01T15:41:23;3.97;;;1.63;;
16288;SDS011;26089;43.538;5.250;2023-04-01T15:43:54;5.53;;;1.40;;
16288;SDS011;26089;43.538;5.250;2023-04-01T15:46:26;4.60;;;1.30;;
16288;SDS011;26089;43.538;5.250;2023-04-01T15:49:11;2.73;;;1.20;;
16288;SDS011;26089;43.538;5.250;2023-04-01T15:52:07;2.20;;;1.33;;
16288;SDS011;26089;43.538;5.250;2023-04-01T15:57:48;3.57;;;1.40;;
16288;SDS011;26089;43.538;5.250;2023-04-01T16:00:29;4.10;;;1.37;;
16288;SDS011;26089;43.538;5.250;2023-04-01T16:06:11;5.60;;;2.07;;
16288;SDS011;26089;43.538;5.250;2023-04-01T16:08:54;5.67;;;1.23;;
16288;SDS011;26089;43.538;5.250;2023-04-01T16:11:28;5.83;;;1.03;;
16288;SDS011;26089;43.538;5.250;2023-04-01T16:14:11;1.93;;;1.00;;
16288;SDS011;26089;43.538;5.250;2023-04-01T16:16:52;2.00;;;1.40;;
16288;SDS011;26089;43.538;5.250;2023-04-01T16:19:33;6.63;;;1.97;;
16288;SDS011;26089;43.538;5.250;2023-04-01T16:22:18;3.43;;;1.13;;
16288;SDS011;26089;43.538;5.250;2023-04-01T16:24:48;2.80;;;1.40;;
16288;SDS011;26089;43.538;5.250;2023-04-01T16:27:24;4.60;;;1.50;;
16288;SDS011;26089;43.538;5.250;2023-04-01T16:29:56;3.07;;;1.30;;
16288;SDS011;26089;43.538;5.250;2023-04-01T16:32:29;5.50;;;2.10;;
16288;SDS011;26089;43.538;5.250;2023-04-01T16:35:22;1.57;;;0.90;;
16288;SDS011;26089;43.538;5.250;2023-04-01T16:37:59;1.37;;;1.27;;
16288;SDS011;26089;43.538;5.250;2023-04-01T16:40:37;2.63;;;1.00;;
16288;SDS011;26089;43.538;5.250;2023-04-01T16:43:13;3.07;;;1.30;;
16288;SDS011;26089;43.538;5.250;2023-04-01T16:45:51;4.53;;;1.50;;
16288;SDS011;26089;43.538;5.250;2023-04-01T16:48:24;2.87;;;1.10;;
16288;SDS011;26089;43.538;5.250;2023-04-01T16:50:58;2.67;;;1.30;;
16288;SDS011;26089;43.538;5.250;2023-04-01T16:53:30;2.10;;;1.30;;
16288;SDS011;26089;43.538;5.250;2023-04-01T16:56:08;4.23;;;1.40;;
16288;SDS011;26089;43.538;5.250;2023-04-01T16:58:40;2.43;;;1.10;;
16288;SDS011;26089;43.538;5.250;2023-04-01T17:01:11;2.73;;;1.40;;
16288;SDS011;26089;43.538;5.250;2023-04-01T17:03:43;2.27;;;1.17;;
16288;SDS011;26089;43.538;5.250;2023-04-01T17:06:19;3.40;;;1.40;;